createdAt,value
2018-08-16T00:00:46.754Z,1014.09
2018-08-16T00:01:46.745Z,1014.09
2018-08-16T00:02:46.745Z,1014.07
2018-08-16T00:03:46.735Z,1014.09
2018-08-16T00:04:46.734Z,1014.09
2018-08-16T00:05:46.732Z,1014.08
2018-08-16T00:06:46.754Z,1014.07
2018-08-16T00:07:46.733Z,1014.05
2018-08-16T00:08:46.726Z,1014.02
2018-08-16T00:09:46.725Z,1014.05
2018-08-16T00:10:46.730Z,1014.02
2018-08-16T00:11:46.724Z,1014.02
2018-08-16T00:12:46.720Z,1014.03
2018-08-16T00:13:46.722Z,1014.04
2018-08-16T00:14:46.714Z,1014.01
2018-08-16T00:15:46.712Z,1014.01
2018-08-16T00:16:46.708Z,1014.04
2018-08-16T00:17:46.705Z,1014.06
2018-08-16T00:18:46.742Z,1014.03
2018-08-16T00:19:46.706Z,1014.08
2018-08-16T00:20:46.703Z,1014.06
2018-08-16T00:21:46.701Z,1014.08
2018-08-16T00:22:46.695Z,1014.02
2018-08-16T00:23:46.692Z,1014.04
2018-08-16T00:24:46.696Z,1014.02
2018-08-16T00:25:46.692Z,1014.03
2018-08-16T00:26:46.686Z,1014.05
2018-08-16T00:27:46.682Z,1014.03
2018-08-16T00:28:46.680Z,1014.03
2018-08-16T00:29:46.678Z,1014.06
2018-08-16T00:30:46.680Z,1014.00
2018-08-16T00:31:46.678Z,1014.02
2018-08-16T00:32:46.676Z,1014.02
2018-08-16T00:33:46.674Z,1013.97
2018-08-16T00:34:46.666Z,1014.02
2018-08-16T00:35:46.665Z,1014.02
2018-08-16T00:36:46.661Z,1014.04
2018-08-16T00:37:46.659Z,1014.02
2018-08-16T00:38:46.662Z,1014.03
2018-08-16T00:39:46.659Z,1014.02
2018-08-16T00:40:46.652Z,1014.00
2018-08-16T00:41:46.650Z,1013.97
2018-08-16T00:42:46.657Z,1013.97
2018-08-16T00:43:46.649Z,1014.00
2018-08-16T00:44:46.647Z,1014.00
2018-08-16T00:45:46.645Z,1013.98
2018-08-16T00:46:46.638Z,1013.97
2018-08-16T00:47:46.634Z,1013.99
2018-08-16T00:48:46.638Z,1013.95
2018-08-16T00:49:46.629Z,1013.93
2018-08-16T00:50:46.632Z,1014.00
2018-08-16T00:51:46.631Z,1013.97
2018-08-16T00:52:46.628Z,1013.99
2018-08-16T00:53:46.625Z,1013.98
2018-08-16T00:54:46.619Z,1013.98
2018-08-16T00:55:46.616Z,1014.05
2018-08-16T00:56:46.618Z,1013.97
2018-08-16T00:57:46.616Z,1013.94
2018-08-16T00:58:46.607Z,1013.93
2018-08-16T00:59:46.605Z,1013.95
2018-08-16T01:00:46.606Z,1013.91
2018-08-16T01:01:46.600Z,1013.89
2018-08-16T01:02:46.603Z,1013.90
2018-08-16T01:03:46.599Z,1013.90
2018-08-16T01:04:46.598Z,1013.92
2018-08-16T01:05:46.598Z,1013.92
2018-08-16T01:06:46.589Z,1013.93
2018-08-16T01:07:46.584Z,1013.91
2018-08-16T01:08:46.582Z,1013.86
2018-08-16T01:09:46.599Z,1013.86
2018-08-16T01:10:46.583Z,1013.82
2018-08-16T01:11:46.578Z,1013.82
2018-08-16T01:12:46.573Z,1013.90
2018-08-16T01:13:46.569Z,1013.86
2018-08-16T01:14:46.571Z,1013.93
2018-08-16T01:15:46.568Z,1013.88
2018-08-16T01:16:46.567Z,1013.88
2018-08-16T01:17:46.565Z,1013.87
2018-08-16T01:18:46.558Z,1013.88
2018-08-16T01:19:46.553Z,1013.88
2018-08-16T01:20:46.553Z,1013.89
2018-08-16T01:21:46.550Z,1013.88
2018-08-16T01:22:46.552Z,1013.87
2018-08-16T01:23:46.549Z,1013.87
2018-08-16T01:24:46.545Z,1013.85
2018-08-16T01:25:46.543Z,1013.87
2018-08-16T01:26:46.536Z,1013.86
2018-08-16T01:27:46.533Z,1013.81
2018-08-16T01:28:46.535Z,1013.84
2018-08-16T01:29:46.532Z,1013.88
2018-08-16T01:30:46.525Z,1013.86
2018-08-16T01:31:46.522Z,1013.91
2018-08-16T01:32:46.520Z,1013.88
2018-08-16T01:33:46.518Z,1013.89
2018-08-16T01:34:46.521Z,1013.86
2018-08-16T01:35:46.564Z,1013.82
2018-08-16T01:36:46.515Z,1013.82
2018-08-16T01:37:46.513Z,1013.85
2018-08-16T01:38:46.504Z,1013.89
2018-08-16T01:39:46.501Z,1013.86
2018-08-16T01:40:46.500Z,1013.87
2018-08-16T01:41:46.496Z,1013.86
2018-08-16T01:42:46.499Z,1013.83
2018-08-16T01:43:46.496Z,1013.87
2018-08-16T01:44:46.488Z,1013.87
2018-08-16T01:45:46.486Z,1013.84
2018-08-16T01:46:46.489Z,1013.82
2018-08-16T01:47:46.484Z,1013.81
2018-08-16T01:48:46.484Z,1013.85
2018-08-16T01:49:46.480Z,1013.83
2018-08-16T01:50:46.473Z,1013.84
2018-08-16T01:51:46.471Z,1013.85
2018-08-16T01:52:46.467Z,1013.84
2018-08-16T01:53:46.466Z,1013.82
2018-08-16T01:54:46.467Z,1013.82
2018-08-16T01:55:46.464Z,1013.82
2018-08-16T01:56:46.460Z,1013.81
2018-08-16T01:57:46.459Z,1013.82
2018-08-16T01:58:46.452Z,1013.80
2018-08-16T01:59:46.447Z,1013.79
2018-08-16T02:00:46.449Z,1013.83
2018-08-16T02:01:46.447Z,1013.83
2018-08-16T02:02:46.440Z,1013.77
2018-08-16T02:03:46.438Z,1013.81
2018-08-16T02:04:46.434Z,1013.74
2018-08-16T02:05:46.431Z,1013.72
2018-08-16T02:06:46.435Z,1013.76
2018-08-16T02:07:46.430Z,1013.74
2018-08-16T02:08:46.427Z,1013.78
2018-08-16T02:09:46.425Z,1013.74
2018-08-16T02:10:46.418Z,1013.77
2018-08-16T02:11:46.420Z,1013.70
2018-08-16T02:12:46.413Z,1013.72
2018-08-16T02:13:46.410Z,1013.73
2018-08-16T02:14:46.413Z,1013.69
2018-08-16T02:15:46.409Z,1013.73
2018-08-16T02:16:46.401Z,1013.76
2018-08-16T02:17:46.399Z,1013.72
2018-08-16T02:18:46.401Z,1013.70
2018-08-16T02:19:46.399Z,1013.66
2018-08-16T02:20:46.394Z,1013.74
2018-08-16T02:21:46.392Z,1013.67
2018-08-16T02:22:46.384Z,1013.70
2018-08-16T02:23:46.381Z,1013.70
2018-08-16T02:24:46.378Z,1013.68
2018-08-16T02:25:46.377Z,1013.69
2018-08-16T02:26:46.378Z,1013.68
2018-08-16T02:27:46.374Z,1013.69
2018-08-16T02:28:46.373Z,1013.67
2018-08-16T02:29:46.370Z,1013.68
2018-08-16T02:30:46.363Z,1013.64
2018-08-16T02:31:46.359Z,1013.68
2018-08-16T02:32:46.362Z,1013.70
2018-08-16T02:33:46.481Z,1013.67
2018-08-16T02:34:46.352Z,1013.64
2018-08-16T02:35:46.349Z,1013.62
2018-08-16T02:36:46.346Z,1013.65
2018-08-16T02:37:46.343Z,1013.66
2018-08-16T02:38:46.344Z,1013.61
2018-08-16T02:39:46.340Z,1013.61
2018-08-16T02:40:46.339Z,1013.59
2018-08-16T02:41:46.335Z,1013.55
2018-08-16T02:42:46.329Z,1013.58
2018-08-16T02:43:46.325Z,1013.50
2018-08-16T02:44:46.323Z,1013.46
2018-08-16T02:45:46.320Z,1013.49
2018-08-16T02:46:46.322Z,1013.40
2018-08-16T02:47:46.318Z,1013.39
2018-08-16T02:48:46.310Z,1013.43
2018-08-16T02:49:46.307Z,1013.35
2018-08-16T02:50:46.324Z,1013.39
2018-08-16T02:51:46.306Z,1013.44
2018-08-16T02:52:46.303Z,1013.39
2018-08-16T02:53:46.301Z,1013.39
2018-08-16T02:54:46.293Z,1013.40
2018-08-16T02:55:46.293Z,1013.43
2018-08-16T02:56:46.288Z,1013.37
2018-08-16T02:57:46.284Z,1013.40
2018-08-16T02:58:46.286Z,1013.37
2018-08-16T02:59:46.282Z,1013.36
2018-08-16T03:00:46.280Z,1013.42
2018-08-16T03:01:46.278Z,1013.36
2018-08-16T03:02:46.269Z,1013.32
2018-08-16T03:03:46.267Z,1013.34
2018-08-16T03:04:46.268Z,1013.36
2018-08-16T03:05:46.266Z,1013.36
2018-08-16T03:06:46.257Z,1013.29
2018-08-16T03:07:46.254Z,1013.32
2018-08-16T03:08:46.251Z,1013.25
2018-08-16T03:09:46.249Z,1013.26
2018-08-16T03:10:46.250Z,1013.31
2018-08-16T03:11:46.248Z,1013.28
2018-08-16T03:12:46.245Z,1013.25
2018-08-16T03:13:46.242Z,1013.28
2018-08-16T03:14:46.233Z,1013.23
2018-08-16T03:15:46.229Z,1013.20
2018-08-16T03:16:46.228Z,1013.17
2018-08-16T03:17:46.227Z,1013.21
2018-08-16T03:18:46.224Z,1013.22
2018-08-16T03:19:46.221Z,1013.21
2018-08-16T03:20:46.214Z,1013.18
2018-08-16T03:21:46.212Z,1013.21
2018-08-16T03:22:46.212Z,1013.21
2018-08-16T03:23:46.209Z,1013.20
2018-08-16T03:24:46.206Z,1013.22
2018-08-16T03:25:46.204Z,1013.24
2018-08-16T03:26:46.195Z,1013.23
2018-08-16T03:27:46.192Z,1013.21
2018-08-16T03:28:46.189Z,1013.19
2018-08-16T03:29:46.187Z,1013.16
2018-08-16T03:30:46.189Z,1013.16
2018-08-16T03:31:46.185Z,1013.13
2018-08-16T03:32:46.181Z,1013.12
2018-08-16T03:33:46.178Z,1013.15
2018-08-16T03:34:46.172Z,1013.12
2018-08-16T03:35:46.169Z,1013.10
2018-08-16T03:36:46.170Z,1013.08
2018-08-16T03:37:46.167Z,1013.03
2018-08-16T03:38:46.159Z,1013.06
2018-08-16T03:39:46.155Z,1013.03
2018-08-16T03:40:46.154Z,1013.01
2018-08-16T03:41:46.149Z,1013.05
2018-08-16T03:42:46.152Z,1013.05
2018-08-16T03:43:46.149Z,1013.05
2018-08-16T03:44:46.145Z,1013.04
2018-08-16T03:45:46.143Z,1013.01
2018-08-16T03:46:46.136Z,1013.02
2018-08-16T03:47:46.130Z,1013.03
2018-08-16T03:48:46.127Z,1013.05
2018-08-16T03:49:46.135Z,1013.01
2018-08-16T03:50:46.126Z,1013.02
2018-08-16T03:51:46.124Z,1013.03
2018-08-16T03:52:46.116Z,1012.96
2018-08-16T03:53:46.112Z,1012.94
2018-08-16T03:54:46.114Z,1013.02
2018-08-16T03:55:46.109Z,1013.02
2018-08-16T03:56:46.108Z,1012.98
2018-08-16T03:57:46.106Z,1012.95
2018-08-16T03:58:46.098Z,1013.02
2018-08-16T03:59:46.093Z,1013.01
2018-08-16T04:00:46.091Z,1013.00
2018-08-16T04:01:46.087Z,1013.04
2018-08-16T04:02:46.090Z,1012.99
2018-08-16T04:03:46.085Z,1013.04
2018-08-16T04:04:46.082Z,1013.05
2018-08-16T04:05:46.080Z,1013.02
2018-08-16T04:06:46.072Z,1013.06
2018-08-16T04:07:46.069Z,1013.00
2018-08-16T04:08:46.069Z,1013.00
2018-08-16T04:09:46.066Z,1012.99
2018-08-16T04:10:46.059Z,1012.99
2018-08-16T04:11:46.055Z,1013.01
2018-08-16T04:12:46.052Z,1013.02
2018-08-16T04:13:46.051Z,1013.01
2018-08-16T04:14:46.052Z,1013.03
2018-08-16T04:15:46.047Z,1012.96
2018-08-16T04:16:46.045Z,1013.02
2018-08-16T04:17:46.041Z,1013.03
2018-08-16T04:18:46.033Z,1013.01
2018-08-16T04:19:46.031Z,1013.02
2018-08-16T04:20:46.028Z,1013.03
2018-08-16T04:21:46.024Z,1013.02
2018-08-16T04:22:46.026Z,1013.02
2018-08-16T04:23:46.191Z,1013.03
2018-08-16T04:24:46.014Z,1013.06
2018-08-16T04:25:46.012Z,1013.06
2018-08-16T04:26:46.013Z,1013.06
2018-08-16T04:27:46.012Z,1013.04
2018-08-16T04:28:46.005Z,1013.08
2018-08-16T04:29:46.005Z,1013.07
2018-08-16T04:30:45.996Z,1013.03
2018-08-16T04:31:45.991Z,1013.02
2018-08-16T04:32:45.989Z,1013.07
2018-08-16T04:33:45.987Z,1013.10
2018-08-16T04:34:45.989Z,1013.02
2018-08-16T04:35:45.984Z,1013.08
2018-08-16T04:36:45.982Z,1013.05
2018-08-16T04:37:45.981Z,1013.14
2018-08-16T04:38:45.971Z,1013.10
2018-08-16T04:39:45.968Z,1013.11
2018-08-16T04:40:45.970Z,1013.11
2018-08-16T04:41:46.095Z,1013.13
2018-08-16T04:42:45.960Z,1013.08
2018-08-16T04:43:45.955Z,1013.08
2018-08-16T04:44:45.952Z,1013.07
2018-08-16T04:45:45.951Z,1013.12
2018-08-16T04:46:45.951Z,1013.11
2018-08-16T04:47:45.948Z,1013.16
2018-08-16T04:48:45.946Z,1013.14
2018-08-16T04:49:45.972Z,1013.11
2018-08-16T04:50:45.937Z,1013.18
2018-08-16T04:51:45.934Z,1013.18
2018-08-16T04:52:45.938Z,1013.22
2018-08-16T04:53:45.928Z,1013.23
2018-08-16T04:54:45.931Z,1013.26
2018-08-16T04:55:45.928Z,1013.23
2018-08-16T04:56:45.926Z,1013.23
2018-08-16T04:57:45.918Z,1013.28
2018-08-16T04:58:45.923Z,1013.29
2018-08-16T04:59:45.918Z,1013.29
2018-08-16T05:00:45.915Z,1013.35
2018-08-16T05:01:45.913Z,1013.32
2018-08-16T05:02:45.906Z,1013.33
2018-08-16T05:03:45.904Z,1013.35
2018-08-16T05:04:45.902Z,1013.34
2018-08-16T05:05:45.901Z,1013.42
2018-08-16T05:06:45.904Z,1013.40
2018-08-16T05:07:45.900Z,1013.41
2018-08-16T05:08:45.901Z,1013.40
2018-08-16T05:09:45.899Z,1013.37
2018-08-16T05:10:45.893Z,1013.41
2018-08-16T05:11:45.891Z,1013.39
2018-08-16T05:12:45.897Z,1013.41
2018-08-16T05:13:45.895Z,1013.36
2018-08-16T05:14:45.890Z,1013.37
2018-08-16T05:15:45.887Z,1013.36
2018-08-16T05:16:45.888Z,1013.39
2018-08-16T05:17:45.884Z,1013.33
2018-08-16T05:18:45.890Z,1013.40
2018-08-16T05:19:45.889Z,1013.40
2018-08-16T05:20:45.887Z,1013.38
2018-08-16T05:21:45.887Z,1013.35
2018-08-16T05:22:45.882Z,1013.37
2018-08-16T05:23:45.887Z,1013.38
2018-08-16T05:24:45.879Z,1013.40
2018-08-16T05:25:45.892Z,1013.44
2018-08-16T05:26:45.882Z,1013.38
2018-08-16T05:27:45.885Z,1013.43
2018-08-16T05:28:45.876Z,1013.38
2018-08-16T05:29:45.876Z,1013.40
2018-08-16T05:30:45.881Z,1013.36
2018-08-16T05:31:45.995Z,1013.39
2018-08-16T05:32:45.878Z,1013.43
2018-08-16T05:33:45.883Z,1013.40
2018-08-16T05:34:45.873Z,1013.40
2018-08-16T05:35:45.872Z,1013.41
2018-08-16T05:36:45.872Z,1013.39
2018-08-16T05:37:45.872Z,1013.41
2018-08-16T05:38:45.875Z,1013.37
2018-08-16T05:39:45.875Z,1013.40
2018-08-16T05:40:45.874Z,1013.37
2018-08-16T05:41:45.873Z,1013.42
2018-08-16T05:42:45.869Z,1013.46
2018-08-16T05:43:45.867Z,1013.43
2018-08-16T05:44:45.882Z,1013.40
2018-08-16T05:45:45.871Z,1013.45
2018-08-16T05:46:45.865Z,1013.41
2018-08-16T05:47:45.864Z,1013.44
2018-08-16T05:48:45.864Z,1013.47
2018-08-16T05:49:45.865Z,1013.41
2018-08-16T05:50:45.884Z,1013.45
2018-08-16T05:51:45.866Z,1013.41
2018-08-16T05:52:45.867Z,1013.41
2018-08-16T05:53:45.866Z,1013.45
2018-08-16T05:54:45.859Z,1013.39
2018-08-16T05:55:45.859Z,1013.41
2018-08-16T05:56:45.858Z,1013.39
2018-08-16T05:57:45.857Z,1013.45
2018-08-16T05:58:45.865Z,1013.38
2018-08-16T05:59:45.860Z,1013.41
2018-08-16T06:00:45.855Z,1013.41
2018-08-16T06:01:45.853Z,1013.34
2018-08-16T06:02:45.858Z,1013.38
2018-08-16T06:03:45.859Z,1013.40
2018-08-16T06:04:45.856Z,1013.33
2018-08-16T06:05:45.856Z,1013.37
2018-08-16T06:06:45.851Z,1013.36
2018-08-16T06:07:45.849Z,1013.34
2018-08-16T06:08:45.849Z,1013.34
2018-08-16T06:09:45.847Z,1013.28
2018-08-16T06:10:45.851Z,1013.29
2018-08-16T06:11:45.849Z,1013.32
2018-08-16T06:12:45.848Z,1013.34
2018-08-16T06:13:45.848Z,1013.25
2018-08-16T06:14:45.845Z,1013.29
2018-08-16T06:15:45.842Z,1013.23
2018-08-16T06:16:45.846Z,1013.22
2018-08-16T06:17:45.845Z,1013.17
2018-08-16T06:18:45.841Z,1013.17
2018-08-16T06:19:45.838Z,1013.13
2018-08-16T06:20:45.839Z,1013.12
2018-08-16T06:21:45.839Z,1013.13
2018-08-16T06:22:45.843Z,1013.13
2018-08-16T06:23:45.841Z,1013.13
2018-08-16T06:24:45.840Z,1013.12
2018-08-16T06:25:45.839Z,1013.14
2018-08-16T06:26:45.835Z,1013.11
2018-08-16T06:27:45.833Z,1013.13
2018-08-16T06:28:45.833Z,1013.10
2018-08-16T06:29:45.832Z,1013.13
2018-08-16T06:30:45.837Z,1013.11
2018-08-16T06:31:45.952Z,1013.12
2018-08-16T06:32:45.831Z,1013.06
2018-08-16T06:33:45.832Z,1013.05
2018-08-16T06:34:45.835Z,1013.07
2018-08-16T06:35:45.834Z,1013.06
2018-08-16T06:36:45.834Z,1013.09
2018-08-16T06:37:45.833Z,1013.07
2018-08-16T06:38:45.836Z,1013.09
2018-08-16T06:39:45.827Z,1013.07
2018-08-16T06:40:45.827Z,1013.07
2018-08-16T06:41:45.827Z,1013.02
2018-08-16T06:42:45.836Z,1013.07
2018-08-16T06:43:45.830Z,1013.09
2018-08-16T06:44:45.831Z,1013.10
2018-08-16T06:45:45.830Z,1013.06
2018-08-16T06:46:45.825Z,1013.07
2018-08-16T06:47:45.826Z,1013.10
2018-08-16T06:48:45.831Z,1013.06
2018-08-16T06:49:45.831Z,1013.12
2018-08-16T06:50:45.827Z,1013.07
2018-08-16T06:51:45.824Z,1013.05
2018-08-16T06:52:45.825Z,1013.12
2018-08-16T06:53:45.825Z,1013.12
2018-08-16T06:54:45.832Z,1013.16
2018-08-16T06:55:45.830Z,1013.08
2018-08-16T06:56:45.831Z,1013.16
2018-08-16T06:57:45.831Z,1013.17
2018-08-16T06:58:45.827Z,1013.17
2018-08-16T06:59:45.827Z,1013.14
2018-08-16T07:00:45.828Z,1013.11
2018-08-16T07:01:45.828Z,1013.14
2018-08-16T07:02:45.835Z,1013.12
2018-08-16T07:03:45.833Z,1013.09
2018-08-16T07:04:45.886Z,1013.16
2018-08-16T07:05:45.832Z,1013.17
2018-08-16T07:06:45.838Z,1013.18
2018-08-16T07:07:45.837Z,1013.12
2018-08-16T07:08:45.838Z,1013.15
2018-08-16T07:09:45.839Z,1013.16
2018-08-16T07:10:45.837Z,1013.18
2018-08-16T07:11:45.841Z,1013.14
2018-08-16T07:12:45.839Z,1013.19
2018-08-16T07:13:45.841Z,1013.21
2018-08-16T07:14:45.846Z,1013.18
2018-08-16T07:15:45.847Z,1013.13
2018-08-16T07:16:45.850Z,1013.14
2018-08-16T07:17:45.854Z,1013.20
2018-08-16T07:18:45.887Z,1013.12
2018-08-16T07:19:45.852Z,1013.14
2018-08-16T07:20:45.855Z,1013.17
2018-08-16T07:21:45.861Z,1013.18
2018-08-16T07:22:45.852Z,1013.04
2018-08-16T07:23:45.854Z,1013.04
2018-08-16T07:24:45.869Z,1013.05
2018-08-16T07:25:45.857Z,1013.08
2018-08-16T07:26:45.864Z,1013.02
2018-08-16T07:27:45.865Z,1013.03
2018-08-16T07:28:45.868Z,1012.98
2018-08-16T07:29:45.869Z,1012.99
2018-08-16T07:30:45.867Z,1013.01
2018-08-16T07:31:45.867Z,1012.98
2018-08-16T07:32:45.869Z,1013.00
2018-08-16T07:33:45.871Z,1013.01
2018-08-16T07:34:45.877Z,1013.01
2018-08-16T07:35:45.879Z,1013.04
2018-08-16T07:36:45.878Z,1013.07
2018-08-16T07:37:45.881Z,1013.00
2018-08-16T07:38:45.886Z,1013.00
2018-08-16T07:39:45.887Z,1013.02
2018-08-16T07:40:45.891Z,1012.97
2018-08-16T07:41:45.893Z,1012.98
2018-08-16T07:42:45.892Z,1013.00
2018-08-16T07:43:45.892Z,1013.03
2018-08-16T07:44:45.894Z,1013.03
2018-08-16T07:45:46.096Z,1013.03
2018-08-16T07:46:45.906Z,1013.00
2018-08-16T07:47:45.907Z,1013.07
2018-08-16T07:48:45.909Z,1013.05
2018-08-16T07:49:45.912Z,1013.03
2018-08-16T07:50:45.913Z,1013.07
2018-08-16T07:51:46.101Z,1013.05
2018-08-16T07:52:45.922Z,1013.12
2018-08-16T07:53:45.923Z,1013.03
2018-08-16T07:54:45.923Z,1013.06
2018-08-16T07:55:45.924Z,1013.12
2018-08-16T07:56:45.928Z,1013.12
2018-08-16T07:57:45.932Z,1013.08
2018-08-16T07:58:45.940Z,1013.06
2018-08-16T07:59:45.942Z,1013.09
2018-08-16T08:00:45.949Z,1013.12
2018-08-16T08:01:45.948Z,1013.10
2018-08-16T08:02:45.949Z,1013.06
2018-08-16T08:03:45.951Z,1013.10
2018-08-16T08:04:45.953Z,1013.07
2018-08-16T08:05:45.958Z,1013.12
2018-08-16T08:06:45.966Z,1013.12
2018-08-16T08:07:45.968Z,1013.12
2018-08-16T08:08:45.977Z,1013.10
2018-08-16T08:09:45.996Z,1013.10
2018-08-16T08:10:45.984Z,1013.12
2018-08-16T08:11:45.984Z,1013.14
2018-08-16T08:12:45.989Z,1013.19
2018-08-16T08:13:45.993Z,1013.22
2018-08-16T08:14:45.993Z,1013.23
2018-08-16T08:15:45.997Z,1013.23
2018-08-16T08:16:46.000Z,1013.21
2018-08-16T08:17:46.006Z,1013.23
2018-08-16T08:18:46.015Z,1013.22
2018-08-16T08:19:46.019Z,1013.22
2018-08-16T08:20:46.023Z,1013.26
2018-08-16T08:21:46.026Z,1013.25
2018-08-16T08:22:46.026Z,1013.20
2018-08-16T08:23:46.031Z,1013.27
2018-08-16T08:24:46.038Z,1013.31
2018-08-16T08:25:46.046Z,1013.30
2018-08-16T08:26:46.045Z,1013.27
2018-08-16T08:27:46.051Z,1013.34
2018-08-16T08:28:46.054Z,1013.31
2018-08-16T08:29:46.059Z,1013.38
2018-08-16T08:30:46.070Z,1013.36
2018-08-16T08:31:46.184Z,1013.35
2018-08-16T08:32:46.081Z,1013.39
2018-08-16T08:33:46.124Z,1013.33
2018-08-16T08:34:46.088Z,1013.40
2018-08-16T08:35:46.093Z,1013.35
2018-08-16T08:36:46.098Z,1013.39
2018-08-16T08:37:46.107Z,1013.47
2018-08-16T08:38:46.120Z,1013.44
2018-08-16T08:39:46.123Z,1013.45
2018-08-16T08:40:46.125Z,1013.37
2018-08-16T08:41:46.133Z,1013.30
2018-08-16T08:42:46.145Z,1013.40
2018-08-16T08:43:46.152Z,1013.40
2018-08-16T08:44:46.161Z,1013.22
2018-08-16T08:45:46.170Z,1013.31
2018-08-16T08:46:46.173Z,1013.40
2018-08-16T08:47:46.181Z,1013.29
2018-08-16T08:48:46.189Z,1013.42
2018-08-16T08:49:46.197Z,1013.16
2018-08-16T08:50:46.210Z,1013.26
2018-08-16T08:51:46.220Z,1013.37
2018-08-16T08:52:46.227Z,1013.33
2018-08-16T08:53:46.238Z,1013.34
2018-08-16T08:54:46.244Z,1013.30
2018-08-16T08:55:46.251Z,1013.38
2018-08-16T08:56:46.264Z,1013.42
2018-08-16T08:57:46.276Z,1013.40
2018-08-16T08:58:46.282Z,1013.14
2018-08-16T08:59:46.291Z,1013.38
2018-08-16T09:00:46.303Z,1013.23
2018-08-16T09:01:46.314Z,1013.08
2018-08-16T09:02:46.330Z,1013.19
2018-08-16T09:03:46.340Z,1013.38
2018-08-16T09:04:46.352Z,1013.38
2018-08-16T09:05:46.364Z,1013.36
2018-08-16T09:06:46.374Z,1013.38
2018-08-16T09:07:46.381Z,1013.08
2018-08-16T09:08:46.393Z,1013.06
2018-08-16T09:09:46.407Z,1013.01
2018-08-16T09:10:46.423Z,1013.26
2018-08-16T09:11:46.434Z,1013.34
2018-08-16T09:12:46.441Z,1013.32
2018-08-16T09:13:46.455Z,1013.12
2018-08-16T09:14:46.492Z,1013.32
2018-08-16T09:15:46.482Z,1013.30
2018-08-16T09:16:46.495Z,1013.13
2018-08-16T09:17:46.509Z,1013.24
2018-08-16T09:18:46.517Z,1013.22
2018-08-16T09:19:46.529Z,1013.20
2018-08-16T09:20:46.542Z,1013.31
2018-08-16T09:21:46.554Z,1013.35
2018-08-16T09:22:46.573Z,1013.22
2018-08-16T09:23:46.585Z,1013.21
2018-08-16T09:24:46.597Z,1013.24
2018-08-16T09:25:46.611Z,1013.22
2018-08-16T09:26:46.621Z,1013.26
2018-08-16T09:27:46.636Z,1013.26
2018-08-16T09:28:46.653Z,1013.31
2018-08-16T09:29:46.668Z,1013.26
2018-08-16T09:30:46.678Z,1013.26
2018-08-16T09:31:46.692Z,1013.24
2018-08-16T09:32:46.707Z,1013.25
2018-08-16T09:33:46.722Z,1013.17
2018-08-16T09:34:46.743Z,1013.15
2018-08-16T09:35:46.757Z,1013.18
2018-08-16T09:36:46.771Z,1013.14
2018-08-16T09:37:46.787Z,1013.08
2018-08-16T09:38:46.799Z,1013.15
2018-08-16T09:39:46.869Z,1013.15
2018-08-16T09:40:46.830Z,1013.14
2018-08-16T09:41:46.845Z,1013.07
2018-08-16T09:42:46.866Z,1013.09
2018-08-16T09:43:46.880Z,1013.09
2018-08-16T09:44:46.892Z,1013.10
2018-08-16T09:45:46.967Z,1013.12
2018-08-16T09:46:46.928Z,1013.04
2018-08-16T09:47:46.944Z,1013.01
2018-08-16T09:48:46.958Z,1013.03
2018-08-16T09:49:46.974Z,1013.03
2018-08-16T09:50:46.986Z,1012.97
2018-08-16T09:51:47.146Z,1013.01
2018-08-16T09:52:47.017Z,1012.96
2018-08-16T09:53:47.033Z,1012.93
2018-08-16T09:54:47.054Z,1012.87
2018-08-16T09:55:47.069Z,1012.91
2018-08-16T09:56:47.086Z,1012.93
2018-08-16T09:57:47.103Z,1012.97
2018-08-16T09:58:47.116Z,1012.90
2018-08-16T09:59:47.161Z,1012.88
2018-08-16T10:00:47.150Z,1012.88
2018-08-16T10:01:47.166Z,1012.87
2018-08-16T10:02:47.178Z,1012.84
2018-08-16T10:03:47.194Z,1012.63
2018-08-16T10:04:47.209Z,1012.84
2018-08-16T10:05:47.227Z,1012.93
2018-08-16T10:06:47.247Z,1012.64
2018-08-16T10:07:47.266Z,1012.61
2018-08-16T10:08:47.279Z,1012.76
2018-08-16T10:09:47.295Z,1012.73
2018-08-16T10:10:47.306Z,1012.79
2018-08-16T10:11:47.321Z,1012.73
2018-08-16T10:12:47.336Z,1012.80
2018-08-16T10:13:47.357Z,1012.81
2018-08-16T10:14:47.373Z,1012.76
2018-08-16T10:15:47.387Z,1012.77
2018-08-16T10:16:47.398Z,1012.74
2018-08-16T10:17:47.414Z,1012.76
2018-08-16T10:18:47.434Z,1012.74
2018-08-16T10:19:47.448Z,1012.71
2018-08-16T10:20:47.495Z,1012.69
2018-08-16T10:21:47.478Z,1012.75
2018-08-16T10:22:47.494Z,1012.68
2018-08-16T10:23:47.505Z,1012.69
2018-08-16T10:24:47.520Z,1012.71
2018-08-16T10:25:47.536Z,1012.72
2018-08-16T10:26:47.592Z,1012.73
2018-08-16T10:27:47.571Z,1012.70
2018-08-16T10:28:47.589Z,1012.66
2018-08-16T10:29:47.604Z,1012.65
2018-08-16T10:30:47.615Z,1012.66
2018-08-16T10:31:47.630Z,1012.66
2018-08-16T10:32:47.651Z,1012.64
2018-08-16T10:33:47.667Z,1012.64
2018-08-16T10:34:47.677Z,1012.65
2018-08-16T10:35:47.693Z,1012.63
2018-08-16T10:36:47.713Z,1012.62
2018-08-16T10:37:47.726Z,1012.65
2018-08-16T10:38:47.747Z,1012.69
2018-08-16T10:39:47.763Z,1012.59
2018-08-16T10:40:47.780Z,1012.64
2018-08-16T10:41:47.794Z,1012.53
2018-08-16T10:42:47.808Z,1012.66
2018-08-16T10:43:47.822Z,1012.59
2018-08-16T10:44:47.838Z,1012.57
2018-08-16T10:45:47.854Z,1012.58
2018-08-16T10:46:47.876Z,1012.58
2018-08-16T10:47:47.889Z,1012.61
2018-08-16T10:48:47.902Z,1012.61
2018-08-16T10:49:47.919Z,1012.56
2018-08-16T10:50:47.938Z,1012.58
2018-08-16T10:51:47.955Z,1012.53
2018-08-16T10:52:47.972Z,1012.51
2018-08-16T10:53:47.992Z,1012.47
2018-08-16T10:54:47.998Z,1012.46
2018-08-16T10:55:48.014Z,1012.49
2018-08-16T10:56:48.032Z,1012.48
2018-08-16T10:57:48.047Z,1012.50
2018-08-16T10:58:48.067Z,1012.38
2018-08-16T10:59:48.083Z,1012.37
2018-08-16T11:00:48.098Z,1012.43
2018-08-16T11:01:48.115Z,1012.41
2018-08-16T11:02:48.127Z,1012.34
2018-08-16T11:03:48.141Z,1012.33
2018-08-16T11:04:48.161Z,1012.31
2018-08-16T11:05:48.182Z,1012.34
2018-08-16T11:06:48.188Z,1012.27
2018-08-16T11:07:48.205Z,1012.38
2018-08-16T11:08:48.220Z,1012.31
2018-08-16T11:09:48.236Z,1012.31
2018-08-16T11:10:48.255Z,1012.30
2018-08-16T11:11:48.270Z,1012.26
2018-08-16T11:12:48.286Z,1012.25
2018-08-16T11:13:48.300Z,1012.22
2018-08-16T11:14:48.311Z,1012.21
2018-08-16T11:15:48.325Z,1012.25
2018-08-16T11:16:48.340Z,1012.20
2018-08-16T11:17:48.353Z,1012.20
2018-08-16T11:18:48.408Z,1012.18
2018-08-16T11:19:48.388Z,1012.17
2018-08-16T11:20:48.398Z,1012.22
2018-08-16T11:21:48.412Z,1012.16
2018-08-16T11:22:48.431Z,1012.12
2018-08-16T11:23:48.444Z,1012.11
2018-08-16T11:24:48.460Z,1012.11
2018-08-16T11:25:48.476Z,1012.05
2018-08-16T11:26:48.485Z,1012.05
2018-08-16T11:27:48.497Z,1011.97
2018-08-16T11:28:48.511Z,1011.92
2018-08-16T11:29:48.525Z,1011.87
2018-08-16T11:30:48.543Z,1011.92
2018-08-16T11:31:48.555Z,1011.89
2018-08-16T11:32:48.566Z,1011.86
2018-08-16T11:33:48.580Z,1011.83
2018-08-16T11:34:48.589Z,1011.85
2018-08-16T11:35:48.599Z,1011.82
2018-08-16T11:36:48.615Z,1011.78
2018-08-16T11:37:48.670Z,1011.75
2018-08-16T11:38:48.633Z,1011.70
2018-08-16T11:39:48.644Z,1011.61
2018-08-16T11:40:48.739Z,1011.65
2018-08-16T11:41:48.666Z,1011.63
2018-08-16T11:42:48.681Z,1011.65
2018-08-16T11:43:48.691Z,1011.63
2018-08-16T11:44:48.701Z,1011.63
2018-08-16T11:45:48.709Z,1011.61
2018-08-16T11:46:48.718Z,1011.60
2018-08-16T11:47:48.723Z,1011.55
2018-08-16T11:48:48.733Z,1011.59
2018-08-16T11:49:48.742Z,1011.59
2018-08-16T11:50:48.757Z,1011.53
2018-08-16T11:51:48.764Z,1011.48
2018-08-16T11:52:48.768Z,1011.56
2018-08-16T11:53:48.776Z,1011.54
2018-08-16T11:54:48.789Z,1011.48
2018-08-16T11:55:48.798Z,1011.51
2018-08-16T11:56:48.805Z,1011.51
2018-08-16T11:57:48.812Z,1011.48
2018-08-16T11:58:48.865Z,1011.46
2018-08-16T11:59:48.823Z,1011.44
2018-08-16T12:00:48.830Z,1011.50
2018-08-16T12:01:48.838Z,1011.49
2018-08-16T12:02:48.853Z,1011.46
2018-08-16T12:03:48.856Z,1011.44
2018-08-16T12:04:48.865Z,1011.45
2018-08-16T12:05:48.873Z,1011.40